createdAt,value
2022-09-16T00:01:14.556Z,55.99
2022-09-16T00:06:21.675Z,56.06
2022-09-16T00:11:28.848Z,56.11
2022-09-16T00:16:36.191Z,56.00
2022-09-16T00:21:43.270Z,55.99
2022-09-16T00:26:50.480Z,56.01
2022-09-16T00:31:57.647Z,56.02
2022-09-16T00:37:04.783Z,56.02
2022-09-16T00:42:11.987Z,55.96
2022-09-16T00:47:19.253Z,55.92
2022-09-16T00:52:26.411Z,55.90
2022-09-16T00:57:33.653Z,55.82
2022-09-16T01:02:40.930Z,55.91
2022-09-16T01:07:48.131Z,55.89
2022-09-16T01:12:55.355Z,55.85
2022-09-16T01:18:02.548Z,55.77
2022-09-16T01:23:09.725Z,55.50
2022-09-16T01:28:16.968Z,55.28
2022-09-16T01:33:24.155Z,55.30
2022-09-16T01:38:31.305Z,55.31
2022-09-16T01:43:38.463Z,55.32
2022-09-16T01:48:46.496Z,55.24
2022-09-16T01:53:52.940Z,55.21
2022-09-16T01:59:00.068Z,55.21
2022-09-16T02:04:07.222Z,55.14
2022-09-16T02:09:14.358Z,55.09
2022-09-16T02:14:21.596Z,55.00
2022-09-16T02:19:28.837Z,55.03
2022-09-16T02:24:36.089Z,55.06
2022-09-16T02:29:43.291Z,55.06
2022-09-16T02:34:50.521Z,55.05
2022-09-16T02:39:57.847Z,54.96
2022-09-16T02:45:04.948Z,54.92
2022-09-16T02:50:12.538Z,54.95
2022-09-16T02:55:19.737Z,54.89
2022-09-16T03:00:26.999Z,54.92
2022-09-16T03:05:34.272Z,54.87
2022-09-16T03:10:41.562Z,54.91
2022-09-16T03:15:48.858Z,54.88
2022-09-16T03:20:56.073Z,54.83
2022-09-16T03:26:03.243Z,54.83
2022-09-16T03:31:10.582Z,54.84
2022-09-16T03:36:17.767Z,54.85
2022-09-16T03:41:24.976Z,54.85
2022-09-16T03:46:32.230Z,54.82
2022-09-16T03:51:39.464Z,54.86
2022-09-16T03:56:46.646Z,54.83
2022-09-16T04:01:53.871Z,54.77
2022-09-16T04:07:01.117Z,54.80
2022-09-16T04:12:08.294Z,54.73
2022-09-16T04:17:15.509Z,54.73
2022-09-16T04:22:22.735Z,54.67
2022-09-16T04:27:29.919Z,54.64
2022-09-16T04:32:37.079Z,54.63
2022-09-16T04:37:44.297Z,54.66
2022-09-16T04:42:51.534Z,54.63
2022-09-16T04:47:58.745Z,54.60
2022-09-16T04:53:05.950Z,54.61
2022-09-16T04:58:13.157Z,54.61
2022-09-16T05:03:20.443Z,54.59
2022-09-16T05:08:27.612Z,54.60
2022-09-16T05:13:34.860Z,54.57
2022-09-16T05:18:42.071Z,54.59
2022-09-16T05:23:49.639Z,54.60
2022-09-16T05:28:56.483Z,54.61
2022-09-16T05:34:03.668Z,54.61
2022-09-16T05:39:22.782Z,54.65
2022-09-16T05:44:18.143Z,54.63
2022-09-16T05:49:25.382Z,54.66
2022-09-16T05:54:32.851Z,54.55
2022-09-16T05:59:39.936Z,54.54
2022-09-16T06:04:47.141Z,54.53
2022-09-16T06:09:54.512Z,54.55
2022-09-16T06:15:01.634Z,54.53
2022-09-16T06:20:08.861Z,54.58
2022-09-16T06:25:16.233Z,54.60
2022-09-16T06:30:24.667Z,54.57
2022-09-16T06:35:30.569Z,54.58
2022-09-16T06:40:37.966Z,54.67
2022-09-16T06:45:45.188Z,54.63
2022-09-16T06:50:52.380Z,54.68
2022-09-16T06:55:59.710Z,54.68
2022-09-16T07:01:06.918Z,54.53
2022-09-16T07:06:14.254Z,54.53
2022-09-16T07:11:21.647Z,54.47
2022-09-16T07:16:28.798Z,54.51
2022-09-16T07:21:36.028Z,54.47
2022-09-16T07:26:43.355Z,54.70
2022-09-16T07:31:50.399Z,54.71
2022-09-16T07:36:57.618Z,54.77
2022-09-16T07:42:06.279Z,54.75
2022-09-16T07:47:12.051Z,54.70
2022-09-16T07:52:19.228Z,54.73
2022-09-16T07:57:26.552Z,54.65
2022-09-16T08:02:33.739Z,54.68
2022-09-16T08:07:40.896Z,54.75
2022-09-16T08:12:48.220Z,54.67
2022-09-16T08:17:55.355Z,54.64
2022-09-16T08:23:02.583Z,54.47
2022-09-16T08:28:09.894Z,54.54
2022-09-16T08:33:16.924Z,54.51
2022-09-16T08:38:24.104Z,54.56
2022-09-16T08:43:31.513Z,54.51
2022-09-16T08:48:38.590Z,54.50
2022-09-16T08:53:45.804Z,54.50
2022-09-16T08:58:53.140Z,54.36
2022-09-16T09:04:00.209Z,54.41
2022-09-16T09:09:07.471Z,54.31
2022-09-16T09:14:14.899Z,54.31
2022-09-16T09:19:22.040Z,54.21
2022-09-16T09:24:29.229Z,54.29
2022-09-16T09:29:36.590Z,54.37
2022-09-16T09:34:43.643Z,54.28
2022-09-16T09:39:50.932Z,54.02
2022-09-16T09:45:01.421Z,53.06
2022-09-16T09:50:05.254Z,53.51
2022-09-16T09:55:16.126Z,52.88
2022-09-16T10:00:19.906Z,52.71
2022-09-16T10:05:27.037Z,52.39
2022-09-16T10:10:34.296Z,52.86
2022-09-16T10:15:41.691Z,52.99
2022-09-16T10:20:48.813Z,53.19
2022-09-16T10:25:56.033Z,52.71
2022-09-16T10:31:03.567Z,52.09
2022-09-16T10:36:10.598Z,52.43
2022-09-16T10:41:17.865Z,53.06
2022-09-16T10:46:25.297Z,52.69
2022-09-16T10:51:32.307Z,52.77
2022-09-16T10:56:39.522Z,52.08
2022-09-16T11:01:48.147Z,52.22
2022-09-16T11:06:53.937Z,52.03
2022-09-16T11:12:01.163Z,52.27
2022-09-16T11:17:08.620Z,51.82
2022-09-16T11:22:15.696Z,51.83
2022-09-16T11:27:23.019Z,50.52
2022-09-16T11:32:30.429Z,49.88
2022-09-16T11:37:37.536Z,49.77
2022-09-16T11:42:45.810Z,49.70
2022-09-16T11:47:52.166Z,49.62
2022-09-16T11:53:04.446Z,49.48
2022-09-16T11:58:06.500Z,49.14
2022-09-16T12:03:14.039Z,49.28
2022-09-16T12:08:21.031Z,49.74
2022-09-16T12:13:28.939Z,49.99
2022-09-16T12:18:36.341Z,50.40
2022-09-16T12:23:43.462Z,50.59
2022-09-16T12:28:50.678Z,50.88
2022-09-16T12:33:58.052Z,51.16
2022-09-16T12:39:05.145Z,51.36
2022-09-16T12:44:30.440Z,51.67
2022-09-16T12:49:19.809Z,51.72
2022-09-16T12:54:26.962Z,51.99
2022-09-16T12:59:34.215Z,52.17
2022-09-16T13:04:42.655Z,52.10
2022-09-16T13:09:49.739Z,52.34
2022-09-16T13:14:56.940Z,52.35
2022-09-16T13:20:04.336Z,52.33
2022-09-16T13:25:11.401Z,52.42
2022-09-16T13:30:18.645Z,52.54
2022-09-16T13:35:26.098Z,52.54
2022-09-16T13:40:33.296Z,52.61
2022-09-16T13:45:40.482Z,52.55
2022-09-16T13:50:47.857Z,52.99
2022-09-16T13:55:54.985Z,53.20
2022-09-16T14:01:02.193Z,53.14
2022-09-16T14:06:09.614Z,53.00
2022-09-16T14:11:16.698Z,52.95
2022-09-16T14:16:24.015Z,52.95
2022-09-16T14:21:31.288Z,52.74
2022-09-16T14:26:38.428Z,52.93
2022-09-16T14:31:45.679Z,52.96
2022-09-16T14:36:53.063Z,52.92
2022-09-16T14:42:00.136Z,52.89
2022-09-16T14:47:10.019Z,52.80
2022-09-16T14:52:14.763Z,52.92
2022-09-16T14:57:21.857Z,52.94
2022-09-16T15:02:29.131Z,52.80
2022-09-16T15:07:46.052Z,52.93
2022-09-16T15:12:43.581Z,52.77
2022-09-16T15:17:53.289Z,52.92
2022-09-16T15:22:58.165Z,52.90
2022-09-16T15:28:05.319Z,53.08
2022-09-16T15:33:12.571Z,53.02
2022-09-16T15:38:19.902Z,53.35
2022-09-16T15:43:27.035Z,54.36
2022-09-16T15:48:34.301Z,53.77
2022-09-16T15:53:41.640Z,53.58
2022-09-16T15:58:48.701Z,53.65
2022-09-16T16:03:55.950Z,53.54
2022-09-16T16:09:03.258Z,53.54
2022-09-16T16:14:10.316Z,53.54
2022-09-16T16:19:17.547Z,53.51
2022-09-16T16:24:24.943Z,53.36
2022-09-16T16:29:32.021Z,53.31
2022-09-16T16:34:39.235Z,52.98
2022-09-16T16:39:46.628Z,52.68
2022-09-16T16:44:53.705Z,52.45
2022-09-16T16:50:00.905Z,52.23
2022-09-16T16:55:08.312Z,52.11
2022-09-16T17:00:15.421Z,52.03
2022-09-16T17:05:22.657Z,51.87
2022-09-16T17:10:29.984Z,51.92
2022-09-16T17:15:37.081Z,51.90
2022-09-16T17:20:44.317Z,51.78
2022-09-16T17:25:51.714Z,51.93
2022-09-16T17:30:58.921Z,51.93
2022-09-16T17:36:06.096Z,51.87
2022-09-16T17:41:13.454Z,51.95
2022-09-16T17:46:20.616Z,51.83
2022-09-16T17:51:27.792Z,51.78
2022-09-16T17:56:35.164Z,51.58
2022-09-16T18:01:42.242Z,51.60
2022-09-16T18:06:49.437Z,51.77
2022-09-16T18:11:56.791Z,51.77
2022-09-16T18:17:03.914Z,51.80
2022-09-16T18:22:11.051Z,51.76
2022-09-16T18:27:18.685Z,51.33
2022-09-16T18:32:25.910Z,51.25
2022-09-16T18:37:33.187Z,51.07
2022-09-16T18:42:40.900Z,51.16
2022-09-16T18:47:48.206Z,51.34
2022-09-16T18:52:55.467Z,51.25
2022-09-16T18:58:02.859Z,51.64
2022-09-16T19:03:09.940Z,51.57
2022-09-16T19:08:17.181Z,51.52
2022-09-16T19:13:24.558Z,51.45
2022-09-16T19:18:31.641Z,51.13
2022-09-16T19:23:38.853Z,51.40
2022-09-16T19:28:46.190Z,50.66
2022-09-16T19:33:53.250Z,50.71
2022-09-16T19:39:00.434Z,50.94
2022-09-16T19:44:07.738Z,50.55
2022-09-16T19:49:14.858Z,50.59
2022-09-16T19:54:22.055Z,50.32
2022-09-16T19:59:29.416Z,50.42
2022-09-16T20:04:36.544Z,50.19
2022-09-16T20:09:43.795Z,49.95
2022-09-16T20:14:51.109Z,49.89
2022-09-16T20:19:58.207Z,50.34
2022-09-16T20:25:22.062Z,49.58
2022-09-16T20:30:12.881Z,49.37
2022-09-16T20:35:19.981Z,49.12
2022-09-16T20:40:27.320Z,49.13
2022-09-16T20:45:34.601Z,48.87
2022-09-16T20:50:41.677Z,48.53
2022-09-16T20:55:48.950Z,48.72
2022-09-16T21:00:56.664Z,48.74
2022-09-16T21:06:03.654Z,48.45
2022-09-16T21:11:11.813Z,48.76
2022-09-16T21:16:19.192Z,49.21
2022-09-16T21:21:26.267Z,49.48
2022-09-16T21:26:33.504Z,49.46
2022-09-16T21:31:41.112Z,49.38
2022-09-16T21:36:47.910Z,49.21
2022-09-16T21:41:55.107Z,49.03
2022-09-16T21:47:02.405Z,48.92
2022-09-16T21:52:09.511Z,48.38
2022-09-16T21:57:17.105Z,47.09
2022-09-16T22:02:28.464Z,46.55
2022-09-16T22:07:31.447Z,46.68
2022-09-16T22:12:38.636Z,46.80
2022-09-16T22:17:48.881Z,47.78
2022-09-16T22:22:53.682Z,47.57
2022-09-16T22:28:00.816Z,47.44
2022-09-16T22:33:08.119Z,47.78
2022-09-16T22:38:15.198Z,47.22
2022-09-16T22:43:22.434Z,47.62
2022-09-16T22:48:29.818Z,47.32
2022-09-16T22:53:36.977Z,46.81
2022-09-16T22:58:44.239Z,46.91
2022-09-16T23:03:51.582Z,47.30
2022-09-16T23:08:58.746Z,47.26
2022-09-16T23:14:05.888Z,47.23
2022-09-16T23:19:13.225Z,47.16
2022-09-16T23:24:20.341Z,47.23
2022-09-16T23:29:27.558Z,47.23
2022-09-16T23:34:34.866Z,47.16
2022-09-16T23:39:41.985Z,47.27
2022-09-16T23:44:49.146Z,47.25
2022-09-16T23:49:56.443Z,47.20
2022-09-16T23:55:04.059Z,47.20
